sensor_id;sensor_type;location;lat;lon;timestamp;temperature;humidity
76855;DHT22;66343;44.588;33.450;2023-05-15T00:00:46;16.16;50.08
76855;DHT22;66343;44.588;33.450;2023-05-15T00:03:23;16.13;50.50
76855;DHT22;66343;44.588;33.450;2023-05-15T00:05:56;16.12;50.28
76855;DHT22;66343;44.588;33.450;2023-05-15T00:08:30;16.13;49.93
76855;DHT22;66343;44.588;33.450;2023-05-15T00:11:04;16.10;49.71
76855;DHT22;66343;44.588;33.450;2023-05-15T00:13:36;16.13;49.50
76855;DHT22;66343;44.588;33.450;2023-05-15T00:16:07;16.16;49.76
76855;DHT22;66343;44.588;33.450;2023-05-15T00:18:41;16.16;49.48
76855;DHT22;66343;44.588;33.450;2023-05-15T00:21:13;16.17;49.37
76855;DHT22;66343;44.588;33.450;2023-05-15T00:23:48;16.15;49.55
76855;DHT22;66343;44.588;33.450;2023-05-15T00:26:18;16.12;49.53
76855;DHT22;66343;44.588;33.450;2023-05-15T00:28:54;16.07;49.95
76855;DHT22;66343;44.588;33.450;2023-05-15T00:31:29;16.06;50.18
76855;DHT22;66343;44.588;33.450;2023-05-15T00:34:04;16.08;49.94
76855;DHT22;66343;44.588;33.450;2023-05-15T00:36:36;16.05;49.96
76855;DHT22;66343;44.588;33.450;2023-05-15T00:39:13;16.01;49.83
76855;DHT22;66343;44.588;33.450;2023-05-15T00:41:48;16.02;49.81
76855;DHT22;66343;44.588;33.450;2023-05-15T00:44:19;15.99;50.24
76855;DHT22;66343;44.588;33.450;2023-05-15T00:46:52;15.96;49.82
76855;DHT22;66343;44.588;33.450;2023-05-15T00:49:25;15.95;49.75
76855;DHT22;66343;44.588;33.450;2023-05-15T00:51:58;15.96;50.44
76855;DHT22;66343;44.588;33.450;2023-05-15T00:54:32;15.98;50.61
76855;DHT22;66343;44.588;33.450;2023-05-15T00:57:07;15.99;50.64
76855;DHT22;66343;44.588;33.450;2023-05-15T00:59:40;16.06;49.89
76855;DHT22;66343;44.588;33.450;2023-05-15T01:02:13;16.08;49.87
76855;DHT22;66343;44.588;33.450;2023-05-15T01:04:46;16.12;50.21
76855;DHT22;66343;44.588;33.450;2023-05-15T01:07:15;16.13;49.40
76855;DHT22;66343;44.588;33.450;2023-05-15T01:09:49;16.13;49.37
76855;DHT22;66343;44.588;33.450;2023-05-15T01:12:26;16.12;49.23
76855;DHT22;66343;44.588;33.450;2023-05-15T01:15:00;16.12;49.16
76855;DHT22;66343;44.588;33.450;2023-05-15T01:17:37;16.14;49.26
76855;DHT22;66343;44.588;33.450;2023-05-15T01:20:14;16.16;49.14
76855;DHT22;66343;44.588;33.450;2023-05-15T01:23:13;16.12;48.87
76855;DHT22;66343;44.588;33.450;2023-05-15T01:28:39;16.03;49.66
76855;DHT22;66343;44.588;33.450;2023-05-15T01:31:23;15.96;49.64
76855;DHT22;66343;44.588;33.450;2023-05-15T01:33:59;15.95;49.45
76855;DHT22;66343;44.588;33.450;2023-05-15T01:36:44;15.95;49.76
76855;DHT22;66343;44.588;33.450;2023-05-15T01:39:21;15.90;49.76
76855;DHT22;66343;44.588;33.450;2023-05-15T01:42:08;15.95;49.94
76855;DHT22;66343;44.588;33.450;2023-05-15T01:44:54;15.92;50.78
76855;DHT22;66343;44.588;33.450;2023-05-15T01:47:32;15.92;51.61
76855;DHT22;66343;44.588;33.450;2023-05-15T01:50:06;15.90;51.69
76855;DHT22;66343;44.588;33.450;2023-05-15T01:52:49;15.90;51.97
76855;DHT22;66343;44.588;33.450;2023-05-15T01:55:21;15.90;51.73
76855;DHT22;66343;44.588;33.450;2023-05-15T01:57:59;15.91;51.31
76855;DHT22;66343;44.588;33.450;2023-05-15T02:00:34;15.89;51.21
76855;DHT22;66343;44.588;33.450;2023-05-15T02:03:10;15.88;52.42
76855;DHT22;66343;44.588;33.450;2023-05-15T02:05:44;15.81;54.07
76855;DHT22;66343;44.588;33.450;2023-05-15T02:08:18;15.74;52.91
76855;DHT22;66343;44.588;33.450;2023-05-15T02:10:51;15.73;52.49
76855;DHT22;66343;44.588;33.450;2023-05-15T02:13:27;15.71;53.98
76855;DHT22;66343;44.588;33.450;2023-05-15T02:16:02;15.66;53.27
76855;DHT22;66343;44.588;33.450;2023-05-15T02:18:32;15.66;53.56
76855;DHT22;66343;44.588;33.450;2023-05-15T02:21:07;15.69;53.08
76855;DHT22;66343;44.588;33.450;2023-05-15T02:23:57;15.61;52.51
76855;DHT22;66343;44.588;33.450;2023-05-15T02:29:23;15.57;53.60
76855;DHT22;66343;44.588;33.450;2023-05-15T02:34:53;15.47;53.01
76855;DHT22;66343;44.588;33.450;2023-05-15T02:37:27;15.47;52.96
76855;DHT22;66343;44.588;33.450;2023-05-15T02:40:02;15.45;52.97
76855;DHT22;66343;44.588;33.450;2023-05-15T02:42:46;15.43;53.30
76855;DHT22;66343;44.588;33.450;2023-05-15T02:45:16;15.47;52.93
76855;DHT22;66343;44.588;33.450;2023-05-15T02:47:53;15.52;52.61
76855;DHT22;66343;44.588;33.450;2023-05-15T02:50:23;15.56;52.68
76855;DHT22;66343;44.588;33.450;2023-05-15T02:53:07;15.57;53.01
76855;DHT22;66343;44.588;33.450;2023-05-15T02:55:41;15.59;52.90
76855;DHT22;66343;44.588;33.450;2023-05-15T02:58:10;15.59;53.62
76855;DHT22;66343;44.588;33.450;2023-05-15T03:00:40;15.58;53.07
76855;DHT22;66343;44.588;33.450;2023-05-15T03:03:12;15.62;53.01
76855;DHT22;66343;44.588;33.450;2023-05-15T03:05:44;15.58;53.27
76855;DHT22;66343;44.588;33.450;2023-05-15T03:08:17;15.57;53.17
76855;DHT22;66343;44.588;33.450;2023-05-15T03:10:48;15.59;52.62
76855;DHT22;66343;44.588;33.450;2023-05-15T03:13:19;15.63;52.69
76855;DHT22;66343;44.588;33.450;2023-05-15T03:15:48;15.66;52.87
76855;DHT22;66343;44.588;33.450;2023-05-15T03:18:20;15.71;52.37
76855;DHT22;66343;44.588;33.450;2023-05-15T03:20:53;15.77;52.11
76855;DHT22;66343;44.588;33.450;2023-05-15T03:23:28;15.83;52.00
76855;DHT22;66343;44.588;33.450;2023-05-15T03:26:04;15.89;52.07
76855;DHT22;66343;44.588;33.450;2023-05-15T03:28:34;15.95;51.50
76855;DHT22;66343;44.588;33.450;2023-05-15T03:31:11;16.03;51.81
76855;DHT22;66343;44.588;33.450;2023-05-15T03:33:46;16.06;51.56
76855;DHT22;66343;44.588;33.450;2023-05-15T03:36:24;16.12;51.15
76855;DHT22;66343;44.588;33.450;2023-05-15T03:39:01;16.17;51.01
76855;DHT22;66343;44.588;33.450;2023-05-15T03:41:32;16.22;51.40
76855;DHT22;66343;44.588;33.450;2023-05-15T03:44:02;16.27;51.16
76855;DHT22;66343;44.588;33.450;2023-05-15T03:46:38;16.35;50.67
76855;DHT22;66343;44.588;33.450;2023-05-15T03:49:13;16.40;51.26
76855;DHT22;66343;44.588;33.450;2023-05-15T03:51:50;16.44;51.19
76855;DHT22;66343;44.588;33.450;2023-05-15T03:54:27;16.54;50.74
76855;DHT22;66343;44.588;33.450;2023-05-15T03:57:04;16.63;50.22
76855;DHT22;66343;44.588;33.450;2023-05-15T03:59:36;16.72;50.07
76855;DHT22;66343;44.588;33.450;2023-05-15T04:02:06;16.78;50.06
76855;DHT22;66343;44.588;33.450;2023-05-15T04:04:36;16.80;50.33
76855;DHT22;66343;44.588;33.450;2023-05-15T04:07:07;16.81;49.80
76855;DHT22;66343;44.588;33.450;2023-05-15T04:09:36;16.85;49.68
76855;DHT22;66343;44.588;33.450;2023-05-15T04:12:11;16.94;49.64
76855;DHT22;66343;44.588;33.450;2023-05-15T04:14:40;17.02;49.51
76855;DHT22;66343;44.588;33.450;2023-05-15T04:17:16;17.09;49.52
76855;DHT22;66343;44.588;33.450;2023-05-15T04:19:46;17.16;52.69
76855;DHT22;66343;44.588;33.450;2023-05-15T04:22:16;17.13;53.27
76855;DHT22;66343;44.588;33.450;2023-05-15T04:24:51;17.15;54.13
76855;DHT22;66343;44.588;33.450;2023-05-15T04:27:24;17.18;54.59
76855;DHT22;66343;44.588;33.450;2023-05-15T04:30:06;17.23;54.69
76855;DHT22;66343;44.588;33.450;2023-05-15T04:32:38;17.29;54.78
76855;DHT22;66343;44.588;33.450;2023-05-15T04:35:12;17.33;54.00
76855;DHT22;66343;44.588;33.450;2023-05-15T04:37:46;17.39;53.57
76855;DHT22;66343;44.588;33.450;2023-05-15T04:40:19;17.48;53.18
76855;DHT22;66343;44.588;33.450;2023-05-15T04:42:55;17.53;52.38
76855;DHT22;66343;44.588;33.450;2023-05-15T04:45:27;17.61;51.30
76855;DHT22;66343;44.588;33.450;2023-05-15T04:47:57;17.67;50.43
76855;DHT22;66343;44.588;33.450;2023-05-15T04:50:28;17.76;50.19
76855;DHT22;66343;44.588;33.450;2023-05-15T04:52:59;17.87;50.25
76855;DHT22;66343;44.588;33.450;2023-05-15T04:55:29;17.96;50.16
76855;DHT22;66343;44.588;33.450;2023-05-15T04:58:03;17.99;50.98
76855;DHT22;66343;44.588;33.450;2023-05-15T05:00:40;18.04;49.97
76855;DHT22;66343;44.588;33.450;2023-05-15T05:03:10;18.12;49.79
76855;DHT22;66343;44.588;33.450;2023-05-15T05:05:43;18.15;50.64
76855;DHT22;66343;44.588;33.450;2023-05-15T05:08:14;18.22;51.37
76855;DHT22;66343;44.588;33.450;2023-05-15T05:10:46;18.28;50.93
76855;DHT22;66343;44.588;33.450;2023-05-15T05:13:20;18.35;51.21
76855;DHT22;66343;44.588;33.450;2023-05-15T05:15:55;18.41;51.34
76855;DHT22;66343;44.588;33.450;2023-05-15T05:18:28;18.50;51.89
76855;DHT22;66343;44.588;33.450;2023-05-15T05:21:01;18.56;51.66
76855;DHT22;66343;44.588;33.450;2023-05-15T05:23:33;18.63;50.92
76855;DHT22;66343;44.588;33.450;2023-05-15T05:26:04;18.71;50.85
76855;DHT22;66343;44.588;33.450;2023-05-15T05:28:37;18.80;50.10
76855;DHT22;66343;44.588;33.450;2023-05-15T05:31:09;18.88;45.22
76855;DHT22;66343;44.588;33.450;2023-05-15T05:33:42;18.95;44.50
76855;DHT22;66343;44.588;33.450;2023-05-15T05:36:15;18.94;47.71
76855;DHT22;66343;44.588;33.450;2023-05-15T05:38:45;18.85;47.14
76855;DHT22;66343;44.588;33.450;2023-05-15T05:41:17;18.73;47.23
76855;DHT22;66343;44.588;33.450;2023-05-15T05:43:46;18.67;44.87
76855;DHT22;66343;44.588;33.450;2023-05-15T05:46:23;18.61;45.06
76855;DHT22;66343;44.588;33.450;2023-05-15T05:49:01;18.55;44.92
76855;DHT22;66343;44.588;33.450;2023-05-15T05:51:36;18.56;46.95
76855;DHT22;66343;44.588;33.450;2023-05-15T05:54:11;18.57;45.38
76855;DHT22;66343;44.588;33.450;2023-05-15T05:56:43;18.58;46.79
76855;DHT22;66343;44.588;33.450;2023-05-15T05:59:16;18.51;48.81
76855;DHT22;66343;44.588;33.450;2023-05-15T06:01:50;18.50;49.57
76855;DHT22;66343;44.588;33.450;2023-05-15T06:04:22;18.47;50.99
76855;DHT22;66343;44.588;33.450;2023-05-15T06:06:54;18.48;50.72
76855;DHT22;66343;44.588;33.450;2023-05-15T06:09:28;18.50;51.46
76855;DHT22;66343;44.588;33.450;2023-05-15T06:11:58;18.53;48.59
76855;DHT22;66343;44.588;33.450;2023-05-15T06:14:28;18.44;48.96
76855;DHT22;66343;44.588;33.450;2023-05-15T06:17:00;18.46;50.06
76855;DHT22;66343;44.588;33.450;2023-05-15T06:19:31;18.49;51.22
76855;DHT22;66343;44.588;33.450;2023-05-15T06:22:03;18.51;52.17
76855;DHT22;66343;44.588;33.450;2023-05-15T06:24:39;18.48;52.40
76855;DHT22;66343;44.588;33.450;2023-05-15T06:27:13;18.53;53.21
76855;DHT22;66343;44.588;33.450;2023-05-15T06:29:45;18.57;52.55
76855;DHT22;66343;44.588;33.450;2023-05-15T06:32:18;18.63;53.16
76855;DHT22;66343;44.588;33.450;2023-05-15T06:34:49;18.64;51.85
76855;DHT22;66343;44.588;33.450;2023-05-15T06:37:21;18.64;51.41
76855;DHT22;66343;44.588;33.450;2023-05-15T06:39:51;18.76;51.57
76855;DHT22;66343;44.588;33.450;2023-05-15T06:42:23;18.82;50.63
76855;DHT22;66343;44.588;33.450;2023-05-15T06:45:03;18.89;49.34
76855;DHT22;66343;44.588;33.450;2023-05-15T06:47:36;18.91;47.38
76855;DHT22;66343;44.588;33.450;2023-05-15T06:50:09;18.94;47.20
76855;DHT22;66343;44.588;33.450;2023-05-15T06:52:44;18.98;47.26
76855;DHT22;66343;44.588;33.450;2023-05-15T06:55:16;19.02;46.56
76855;DHT22;66343;44.588;33.450;2023-05-15T06:57:45;19.05;48.02
76855;DHT22;66343;44.588;33.450;2023-05-15T07:00:15;19.03;46.65
76855;DHT22;66343;44.588;33.450;2023-05-15T07:02:46;19.03;48.82
76855;DHT22;66343;44.588;33.450;2023-05-15T07:05:18;18.95;50.66
76855;DHT22;66343;44.588;33.450;2023-05-15T07:07:50;18.91;51.10
76855;DHT22;66343;44.588;33.450;2023-05-15T07:10:24;18.83;50.51
76855;DHT22;66343;44.588;33.450;2023-05-15T07:12:57;18.83;51.89
76855;DHT22;66343;44.588;33.450;2023-05-15T07:15:31;18.84;52.17
76855;DHT22;66343;44.588;33.450;2023-05-15T07:18:05;18.84;52.20
76855;DHT22;66343;44.588;33.450;2023-05-15T07:20:35;18.84;50.53
76855;DHT22;66343;44.588;33.450;2023-05-15T07:23:05;18.88;51.56
76855;DHT22;66343;44.588;33.450;2023-05-15T07:25:36;18.98;51.27
76855;DHT22;66343;44.588;33.450;2023-05-15T07:28:07;18.99;51.06
76855;DHT22;66343;44.588;33.450;2023-05-15T07:30:37;18.95;51.49
76855;DHT22;66343;44.588;33.450;2023-05-15T07:33:09;19.02;49.71
76855;DHT22;66343;44.588;33.450;2023-05-15T07:35:43;19.03;49.96
76855;DHT22;66343;44.588;33.450;2023-05-15T07:38:19;19.06;50.48
76855;DHT22;66343;44.588;33.450;2023-05-15T07:40:51;19.11;49.88
76855;DHT22;66343;44.588;33.450;2023-05-15T07:43:27;19.14;49.82
76855;DHT22;66343;44.588;33.450;2023-05-15T07:46:00;19.17;48.88
76855;DHT22;66343;44.588;33.450;2023-05-15T07:48:40;19.24;49.59
76855;DHT22;66343;44.588;33.450;2023-05-15T07:51:10;19.22;48.86
76855;DHT22;66343;44.588;33.450;2023-05-15T07:53:42;19.16;49.44
76855;DHT22;66343;44.588;33.450;2023-05-15T07:56:14;19.11;48.02
76855;DHT22;66343;44.588;33.450;2023-05-15T07:58:51;19.03;45.61
76855;DHT22;66343;44.588;33.450;2023-05-15T08:01:22;19.11;46.48
76855;DHT22;66343;44.588;33.450;2023-05-15T08:03:52;19.24;45.61
76855;DHT22;66343;44.588;33.450;2023-05-15T08:06:27;19.25;45.40
76855;DHT22;66343;44.588;33.450;2023-05-15T08:09:00;19.23;44.55
76855;DHT22;66343;44.588;33.450;2023-05-15T08:11:29;19.30;44.05
76855;DHT22;66343;44.588;33.450;2023-05-15T08:14:06;19.31;43.95
76855;DHT22;66343;44.588;33.450;2023-05-15T08:16:41;19.39;44.65
76855;DHT22;66343;44.588;33.450;2023-05-15T08:19:19;19.33;44.90
76855;DHT22;66343;44.588;33.450;2023-05-15T08:21:52;19.23;42.68
76855;DHT22;66343;44.588;33.450;2023-05-15T08:24:23;19.15;43.56
76855;DHT22;66343;44.588;33.450;2023-05-15T08:26:56;19.14;44.32
76855;DHT22;66343;44.588;33.450;2023-05-15T08:29:36;19.21;43.29
76855;DHT22;66343;44.588;33.450;2023-05-15T08:32:07;19.28;44.29
76855;DHT22;66343;44.588;33.450;2023-05-15T08:34:40;19.32;44.09
76855;DHT22;66343;44.588;33.450;2023-05-15T08:37:12;19.28;43.07
76855;DHT22;66343;44.588;33.450;2023-05-15T08:39:43;19.27;42.21
76855;DHT22;66343;44.588;33.450;2023-05-15T08:42:43;19.31;43.34
76855;DHT22;66343;44.588;33.450;2023-05-15T08:45:39;19.43;43.53
76855;DHT22;66343;44.588;33.450;2023-05-15T08:48:18;19.62;42.34
76855;DHT22;66343;44.588;33.450;2023-05-15T08:51:22;19.68;40.59
76855;DHT22;66343;44.588;33.450;2023-05-15T08:54:40;19.74;41.57
76855;DHT22;66343;44.588;33.450;2023-05-15T08:57:19;19.87;42.67
76855;DHT22;66343;44.588;33.450;2023-05-15T09:00:02;20.11;41.47
76855;DHT22;66343;44.588;33.450;2023-05-15T09:03:13;20.37;40.32
76855;DHT22;66343;44.588;33.450;2023-05-15T09:05:47;20.40;40.99
76855;DHT22;66343;44.588;33.450;2023-05-15T09:08:55;20.61;41.32
76855;DHT22;66343;44.588;33.450;2023-05-15T09:11:32;20.73;39.72
76855;DHT22;66343;44.588;33.450;2023-05-15T09:14:12;20.77;39.94
76855;DHT22;66343;44.588;33.450;2023-05-15T09:17:17;20.75;38.69
76855;DHT22;66343;44.588;33.450;2023-05-15T09:20:36;20.74;39.59
76855;DHT22;66343;44.588;33.450;2023-05-15T09:23:40;20.71;38.74
76855;DHT22;66343;44.588;33.450;2023-05-15T09:26:45;20.53;38.34
76855;DHT22;66343;44.588;33.450;2023-05-15T09:29:28;20.56;39.75
76855;DHT22;66343;44.588;33.450;2023-05-15T09:32:09;20.63;39.45
76855;DHT22;66343;44.588;33.450;2023-05-15T09:34:46;20.73;36.82
76855;DHT22;66343;44.588;33.450;2023-05-15T09:37:32;20.81;38.59
76855;DHT22;66343;44.588;33.450;2023-05-15T09:40:10;21.07;38.47
76855;DHT22;66343;44.588;33.450;2023-05-15T09:42:50;21.27;38.77
76855;DHT22;66343;44.588;33.450;2023-05-15T09:45:32;21.27;37.44
76855;DHT22;66343;44.588;33.450;2023-05-15T09:48:09;21.42;36.54
76855;DHT22;66343;44.588;33.450;2023-05-15T09:50:46;21.44;37.22
76855;DHT22;66343;44.588;33.450;2023-05-15T09:53:21;21.47;35.53
76855;DHT22;66343;44.588;33.450;2023-05-15T09:55:57;21.43;35.95
76855;DHT22;66343;44.588;33.450;2023-05-15T09:58:54;21.54;35.07
76855;DHT22;66343;44.588;33.450;2023-05-15T10:01:34;21.64;34.54
76855;DHT22;66343;44.588;33.450;2023-05-15T10:04:13;21.53;36.11
76855;DHT22;66343;44.588;33.450;2023-05-15T10:06:48;21.68;36.09
76855;DHT22;66343;44.588;33.450;2023-05-15T10:09:31;21.65;34.38
76855;DHT22;66343;44.588;33.450;2023-05-15T10:12:09;21.34;33.71
76855;DHT22;66343;44.588;33.450;2023-05-15T10:14:45;21.18;34.51
76855;DHT22;66343;44.588;33.450;2023-05-15T10:17:24;21.19;35.76
76855;DHT22;66343;44.588;33.450;2023-05-15T10:20:01;21.30;34.52
76855;DHT22;66343;44.588;33.450;2023-05-15T10:22:44;21.33;34.36
76855;DHT22;66343;44.588;33.450;2023-05-15T10:25:47;21.25;34.49
76855;DHT22;66343;44.588;33.450;2023-05-15T10:28:29;21.20;34.53
76855;DHT22;66343;44.588;33.450;2023-05-15T10:31:10;21.35;35.11
76855;DHT22;66343;44.588;33.450;2023-05-15T10:33:53;21.47;34.76
76855;DHT22;66343;44.588;33.450;2023-05-15T10:36:29;21.42;34.46
76855;DHT22;66343;44.588;33.450;2023-05-15T10:39:06;21.49;35.62
76855;DHT22;66343;44.588;33.450;2023-05-15T10:41:44;21.62;34.89
76855;DHT22;66343;44.588;33.450;2023-05-15T10:44:22;21.58;34.66
76855;DHT22;66343;44.588;33.450;2023-05-15T10:47:00;21.48;36.00
76855;DHT22;66343;44.588;33.450;2023-05-15T10:49:40;21.39;37.85
76855;DHT22;66343;44.588;33.450;2023-05-15T10:52:19;21.40;36.19
76855;DHT22;66343;44.588;33.450;2023-05-15T10:55:00;21.37;36.18
76855;DHT22;66343;44.588;33.450;2023-05-15T10:57:38;21.48;38.78
76855;DHT22;66343;44.588;33.450;2023-05-15T11:00:27;21.74;39.01
76855;DHT22;66343;44.588;33.450;2023-05-15T11:03:04;21.96;36.71
76855;DHT22;66343;44.588;33.450;2023-05-15T11:06:06;22.01;36.57
76855;DHT22;66343;44.588;33.450;2023-05-15T11:08:46;21.77;36.70
76855;DHT22;66343;44.588;33.450;2023-05-15T11:11:56;21.76;37.12
76855;DHT22;66343;44.588;33.450;2023-05-15T11:14:37;21.70;36.84
76855;DHT22;66343;44.588;33.450;2023-05-15T11:17:17;21.65;36.98
76855;DHT22;66343;44.588;33.450;2023-05-15T11:19:55;21.77;36.31
76855;DHT22;66343;44.588;33.450;2023-05-15T11:22:39;21.83;35.44
76855;DHT22;66343;44.588;33.450;2023-05-15T11:25:19;21.82;36.02
76855;DHT22;66343;44.588;33.450;2023-05-15T11:28:03;22.07;35.08
76855;DHT22;66343;44.588;33.450;2023-05-15T11:30:40;22.10;33.38
76855;DHT22;66343;44.588;33.450;2023-05-15T11:33:19;22.13;32.86
76855;DHT22;66343;44.588;33.450;2023-05-15T11:35:59;22.27;32.37
76855;DHT22;66343;44.588;33.450;2023-05-15T11:38:38;22.17;31.06
76855;DHT22;66343;44.588;33.450;2023-05-15T11:41:21;22.04;33.44
76855;DHT22;66343;44.588;33.450;2023-05-15T11:44:06;22.01;32.77
76855;DHT22;66343;44.588;33.450;2023-05-15T11:46:48;21.83;35.68
76855;DHT22;66343;44.588;33.450;2023-05-15T11:49:27;21.90;35.68
76855;DHT22;66343;44.588;33.450;2023-05-15T11:52:02;22.02;35.29
76855;DHT22;66343;44.588;33.450;2023-05-15T11:54:48;22.17;35.21
76855;DHT22;66343;44.588;33.450;2023-05-15T11:57:27;22.09;34.60
76855;DHT22;66343;44.588;33.450;2023-05-15T12:00:06;22.11;37.78
76855;DHT22;66343;44.588;33.450;2023-05-15T12:02:48;22.31;36.19
76855;DHT22;66343;44.588;33.450;2023-05-15T12:05:29;22.16;37.04
76855;DHT22;66343;44.588;33.450;2023-05-15T12:08:13;22.24;36.56
76855;DHT22;66343;44.588;33.450;2023-05-15T12:10:50;22.29;36.19
76855;DHT22;66343;44.588;33.450;2023-05-15T12:13:25;22.40;36.49
76855;DHT22;66343;44.588;33.450;2023-05-15T12:16:05;22.67;38.78
76855;DHT22;66343;44.588;33.450;2023-05-15T12:18:46;22.65;34.35
76855;DHT22;66343;44.588;33.450;2023-05-15T12:21:21;22.91;38.60
76855;DHT22;66343;44.588;33.450;2023-05-15T12:23:58;22.98;40.12
76855;DHT22;66343;44.588;33.450;2023-05-15T12:26:43;23.00;40.32
76855;DHT22;66343;44.588;33.450;2023-05-15T12:29:18;23.18;41.40
76855;DHT22;66343;44.588;33.450;2023-05-15T12:31:58;23.32;37.60
76855;DHT22;66343;44.588;33.450;2023-05-15T12:34:33;23.49;36.56
76855;DHT22;66343;44.588;33.450;2023-05-15T12:37:11;23.38;34.67
76855;DHT22;66343;44.588;33.450;2023-05-15T12:39:54;23.30;36.47
76855;DHT22;66343;44.588;33.450;2023-05-15T12:42:42;23.21;32.20
76855;DHT22;66343;44.588;33.450;2023-05-15T12:45:29;23.12;34.81
76855;DHT22;66343;44.588;33.450;2023-05-15T12:48:06;23.05;34.77
76855;DHT22;66343;44.588;33.450;2023-05-15T12:50:43;23.14;34.16
76855;DHT22;66343;44.588;33.450;2023-05-15T12:53:20;23.21;32.96
76855;DHT22;66343;44.588;33.450;2023-05-15T12:55:57;23.03;34.37
76855;DHT22;66343;44.588;33.450;2023-05-15T12:58:34;23.10;33.99
76855;DHT22;66343;44.588;33.450;2023-05-15T13:01:11;23.22;34.06
76855;DHT22;66343;44.588;33.450;2023-05-15T13:03:52;23.59;33.51
76855;DHT22;66343;44.588;33.450;2023-05-15T13:06:29;23.76;32.76
76855;DHT22;66343;44.588;33.450;2023-05-15T13:09:22;23.95;32.73
76855;DHT22;66343;44.588;33.450;2023-05-15T13:12:05;24.11;33.00
76855;DHT22;66343;44.588;33.450;2023-05-15T13:14:43;24.28;32.56
76855;DHT22;66343;44.588;33.450;2023-05-15T13:17:21;24.57;31.50
76855;DHT22;66343;44.588;33.450;2023-05-15T13:19:55;24.58;28.68
76855;DHT22;66343;44.588;33.450;2023-05-15T13:22:36;24.74;29.84
76855;DHT22;66343;44.588;33.450;2023-05-15T13:25:16;24.97;29.56
76855;DHT22;66343;44.588;33.450;2023-05-15T13:28:00;25.18;30.16
76855;DHT22;66343;44.588;33.450;2023-05-15T13:30:37;25.12;29.86
76855;DHT22;66343;44.588;33.450;2023-05-15T13:33:14;25.45;28.74
76855;DHT22;66343;44.588;33.450;2023-05-15T13:35:55;25.39;29.25
76855;DHT22;66343;44.588;33.450;2023-05-15T13:38:35;25.46;28.66
76855;DHT22;66343;44.588;33.450;2023-05-15T13:41:10;25.67;29.66
76855;DHT22;66343;44.588;33.450;2023-05-15T13:43:47;26.13;28.68
76855;DHT22;66343;44.588;33.450;2023-05-15T13:46:24;26.15;27.71
76855;DHT22;66343;44.588;33.450;2023-05-15T13:49:00;26.22;27.88
76855;DHT22;66343;44.588;33.450;2023-05-15T13:51:35;26.16;28.96
76855;DHT22;66343;44.588;33.450;2023-05-15T13:54:12;26.07;28.75
76855;DHT22;66343;44.588;33.450;2023-05-15T13:56:49;26.09;27.81
76855;DHT22;66343;44.588;33.450;2023-05-15T13:59:24;25.94;27.87
76855;DHT22;66343;44.588;33.450;2023-05-15T14:02:00;25.91;28.23
76855;DHT22;66343;44.588;33.450;2023-05-15T14:04:38;26.01;28.10
76855;DHT22;66343;44.588;33.450;2023-05-15T14:07:17;25.76;28.25
76855;DHT22;66343;44.588;33.450;2023-05-15T14:09:52;26.03;28.05
76855;DHT22;66343;44.588;33.450;2023-05-15T14:12:29;26.06;28.87
76855;DHT22;66343;44.588;33.450;2023-05-15T14:15:10;26.56;27.13
76855;DHT22;66343;44.588;33.450;2023-05-15T14:17:49;26.50;26.02
76855;DHT22;66343;44.588;33.450;2023-05-15T14:20:30;26.20;28.14
76855;DHT22;66343;44.588;33.450;2023-05-15T14:23:05;25.99;28.18
76855;DHT22;66343;44.588;33.450;2023-05-15T14:25:43;25.97;27.86
76855;DHT22;66343;44.588;33.450;2023-05-15T14:28:21;25.92;27.74
76855;DHT22;66343;44.588;33.450;2023-05-15T14:31:00;25.71;28.50
76855;DHT22;66343;44.588;33.450;2023-05-15T14:33:39;26.05;26.92
76855;DHT22;66343;44.588;33.450;2023-05-15T14:36:23;26.04;26.26
76855;DHT22;66343;44.588;33.450;2023-05-15T14:38:58;26.22;25.33
76855;DHT22;66343;44.588;33.450;2023-05-15T14:41:38;26.26;26.29
76855;DHT22;66343;44.588;33.450;2023-05-15T14:44:15;26.24;24.76
76855;DHT22;66343;44.588;33.450;2023-05-15T14:47:09;26.02;26.21
76855;DHT22;66343;44.588;33.450;2023-05-15T14:49:45;26.13;26.71
76855;DHT22;66343;44.588;33.450;2023-05-15T14:52:25;25.92;26.95
76855;DHT22;66343;44.588;33.450;2023-05-15T14:55:07;25.90;26.43
76855;DHT22;66343;44.588;33.450;2023-05-15T14:57:48;25.86;25.73
76855;DHT22;66343;44.588;33.450;2023-05-15T15:00:25;25.79;31.84
76855;DHT22;66343;44.588;33.450;2023-05-15T15:03:04;25.63;33.25
76855;DHT22;66343;44.588;33.450;2023-05-15T15:05:42;25.42;34.34
76855;DHT22;66343;44.588;33.450;2023-05-15T15:08:22;25.77;33.78
76855;DHT22;66343;44.588;33.450;2023-05-15T15:11:02;25.93;32.25
76855;DHT22;66343;44.588;33.450;2023-05-15T15:13:43;26.07;31.77
76855;DHT22;66343;44.588;33.450;2023-05-15T15:16:26;25.80;26.62
76855;DHT22;66343;44.588;33.450;2023-05-15T15:19:03;25.80;26.53
76855;DHT22;66343;44.588;33.450;2023-05-15T15:21:39;25.45;34.40
76855;DHT22;66343;44.588;33.450;2023-05-15T15:24:18;25.40;36.22
76855;DHT22;66343;44.588;33.450;2023-05-15T15:27:01;24.99;36.56
76855;DHT22;66343;44.588;33.450;2023-05-15T15:29:37;24.12;38.76
76855;DHT22;66343;44.588;33.450;2023-05-15T15:32:11;23.88;40.40
76855;DHT22;66343;44.588;33.450;2023-05-15T15:34:48;23.64;42.26
76855;DHT22;66343;44.588;33.450;2023-05-15T15:37:31;23.32;44.05
76855;DHT22;66343;44.588;33.450;2023-05-15T15:40:11;23.12;44.77
76855;DHT22;66343;44.588;33.450;2023-05-15T15:42:45;23.25;44.09
76855;DHT22;66343;44.588;33.450;2023-05-15T15:45:20;23.25;44.38
76855;DHT22;66343;44.588;33.450;2023-05-15T15:47:56;23.27;45.20
76855;DHT22;66343;44.588;33.450;2023-05-15T15:50:39;23.11;43.08
76855;DHT22;66343;44.588;33.450;2023-05-15T15:53:16;23.12;41.78
76855;DHT22;66343;44.588;33.450;2023-05-15T15:55:54;23.21;41.18
76855;DHT22;66343;44.588;33.450;2023-05-15T15:58:29;23.10;41.57
76855;DHT22;66343;44.588;33.450;2023-05-15T16:01:06;23.02;44.82
76855;DHT22;66343;44.588;33.450;2023-05-15T16:03:41;23.15;45.33
76855;DHT22;66343;44.588;33.450;2023-05-15T16:06:16;23.22;45.51
76855;DHT22;66343;44.588;33.450;2023-05-15T16:08:51;23.30;44.98
76855;DHT22;66343;44.588;33.450;2023-05-15T16:11:28;23.30;44.96
76855;DHT22;66343;44.588;33.450;2023-05-15T16:14:05;23.21;45.22
76855;DHT22;66343;44.588;33.450;2023-05-15T16:16:40;23.02;46.17
76855;DHT22;66343;44.588;33.450;2023-05-15T16:19:20;22.77;46.28
76855;DHT22;66343;44.588;33.450;2023-05-15T16:21:54;22.54;47.05
76855;DHT22;66343;44.588;33.450;2023-05-15T16:24:29;22.40;46.35